sensor_id;sensor_type;location;lat;lon;timestamp;temperature;humidity
38428;DHT22;24211;49.980;19.776;2023-02-15T00:00:09;6.30;99.90
38428;DHT22;24211;49.980;19.776;2023-02-15T00:02:57;6.30;99.90
38428;DHT22;24211;49.980;19.776;2023-02-15T00:05:25;6.30;99.90
38428;DHT22;24211;49.980;19.776;2023-02-15T00:07:52;6.30;99.90
38428;DHT22;24211;49.980;19.776;2023-02-15T00:10:19;6.20;99.90
38428;DHT22;24211;49.980;19.776;2023-02-15T00:12:46;6.30;99.90
38428;DHT22;24211;49.980;19.776;2023-02-15T00:15:13;6.30;99.90
38428;DHT22;24211;49.980;19.776;2023-02-15T00:17:41;6.30;99.90
38428;DHT22;24211;49.980;19.776;2023-02-15T00:20:08;6.30;99.90
38428;DHT22;24211;49.980;19.776;2023-02-15T00:22:35;6.20;99.90
38428;DHT22;24211;49.980;19.776;2023-02-15T00:25:03;6.20;99.90
38428;DHT22;24211;49.980;19.776;2023-02-15T00:27:30;6.20;99.90
38428;DHT22;24211;49.980;19.776;2023-02-15T00:29:57;6.20;99.90
38428;DHT22;24211;49.980;19.776;2023-02-15T00:32:24;6.20;99.90
38428;DHT22;24211;49.980;19.776;2023-02-15T00:34:52;6.30;99.90
38428;DHT22;24211;49.980;19.776;2023-02-15T00:37:19;6.20;99.90
38428;DHT22;24211;49.980;19.776;2023-02-15T00:39:47;6.30;99.90
38428;DHT22;24211;49.980;19.776;2023-02-15T00:42:14;6.30;99.90
38428;DHT22;24211;49.980;19.776;2023-02-15T00:44:41;6.20;99.90
38428;DHT22;24211;49.980;19.776;2023-02-15T00:47:08;6.30;99.90
38428;DHT22;24211;49.980;19.776;2023-02-15T00:49:35;6.30;99.90
38428;DHT22;24211;49.980;19.776;2023-02-15T00:52:02;6.30;99.90
38428;DHT22;24211;49.980;19.776;2023-02-15T00:54:30;6.30;99.90
38428;DHT22;24211;49.980;19.776;2023-02-15T00:56:57;6.30;99.90
38428;DHT22;24211;49.980;19.776;2023-02-15T00:59:24;6.30;99.90
38428;DHT22;24211;49.980;19.776;2023-02-15T01:01:51;6.30;99.90
38428;DHT22;24211;49.980;19.776;2023-02-15T01:04:19;6.30;99.90
38428;DHT22;24211;49.980;19.776;2023-02-15T01:06:46;6.20;99.90
38428;DHT22;24211;49.980;19.776;2023-02-15T01:09:13;6.20;99.90
38428;DHT22;24211;49.980;19.776;2023-02-15T01:11:40;6.20;99.90
38428;DHT22;24211;49.980;19.776;2023-02-15T01:14:07;6.20;99.90
38428;DHT22;24211;49.980;19.776;2023-02-15T01:16:37;6.20;99.90
38428;DHT22;24211;49.980;19.776;2023-02-15T01:19:05;6.20;99.90
38428;DHT22;24211;49.980;19.776;2023-02-15T01:21:32;6.20;99.90
38428;DHT22;24211;49.980;19.776;2023-02-15T01:24:02;6.20;99.90
38428;DHT22;24211;49.980;19.776;2023-02-15T01:26:30;6.20;99.90
38428;DHT22;24211;49.980;19.776;2023-02-15T01:28:58;6.20;99.90
38428;DHT22;24211;49.980;19.776;2023-02-15T01:31:25;6.20;99.90
38428;DHT22;24211;49.980;19.776;2023-02-15T01:33:52;6.20;99.90
38428;DHT22;24211;49.980;19.776;2023-02-15T01:36:19;6.20;99.90
38428;DHT22;24211;49.980;19.776;2023-02-15T01:38:46;6.20;99.90
38428;DHT22;24211;49.980;19.776;2023-02-15T01:41:14;6.20;99.90
38428;DHT22;24211;49.980;19.776;2023-02-15T01:43:53;6.20;99.90
38428;DHT22;24211;49.980;19.776;2023-02-15T01:46:30;6.20;99.90
38428;DHT22;24211;49.980;19.776;2023-02-15T01:49:15;6.20;99.90
38428;DHT22;24211;49.980;19.776;2023-02-15T01:51:47;6.20;99.90
38428;DHT22;24211;49.980;19.776;2023-02-15T01:54:30;6.20;99.90
38428;DHT22;24211;49.980;19.776;2023-02-15T01:57:03;6.10;99.90
38428;DHT22;24211;49.980;19.776;2023-02-15T01:59:39;6.10;99.90
38428;DHT22;24211;49.980;19.776;2023-02-15T02:02:13;6.10;99.90
38428;DHT22;24211;49.980;19.776;2023-02-15T02:04:50;6.10;99.90
38428;DHT22;24211;49.980;19.776;2023-02-15T02:07:26;6.10;99.90
38428;DHT22;24211;49.980;19.776;2023-02-15T02:09:54;6.10;99.90
38428;DHT22;24211;49.980;19.776;2023-02-15T02:12:23;6.10;99.90
38428;DHT22;24211;49.980;19.776;2023-02-15T02:14:52;6.10;99.90
38428;DHT22;24211;49.980;19.776;2023-02-15T02:20:16;6.10;99.90
38428;DHT22;24211;49.980;19.776;2023-02-15T02:23:14;6.10;99.90
38428;DHT22;24211;49.980;19.776;2023-02-15T02:29:19;6.10;99.90
38428;DHT22;24211;49.980;19.776;2023-02-15T02:35:16;6.10;99.90
38428;DHT22;24211;49.980;19.776;2023-02-15T02:38:08;6.10;99.90
38428;DHT22;24211;49.980;19.776;2023-02-15T02:43:52;6.10;99.90
38428;DHT22;24211;49.980;19.776;2023-02-15T02:46:59;6.10;99.90
38428;DHT22;24211;49.980;19.776;2023-02-15T02:49:37;6.10;99.90
38428;DHT22;24211;49.980;19.776;2023-02-15T02:52:42;6.10;99.90
38428;DHT22;24211;49.980;19.776;2023-02-15T02:55:30;6.00;99.90
38428;DHT22;24211;49.980;19.776;2023-02-15T03:00:59;5.60;99.90
38428;DHT22;24211;49.980;19.776;2023-02-15T03:03:41;5.70;99.90
38428;DHT22;24211;49.980;19.776;2023-02-15T03:09:22;5.50;99.90
38428;DHT22;24211;49.980;19.776;2023-02-15T03:12:02;5.40;99.90
38428;DHT22;24211;49.980;19.776;2023-02-15T03:14:39;5.50;99.90
38428;DHT22;24211;49.980;19.776;2023-02-15T03:17:11;5.60;99.90
38428;DHT22;24211;49.980;19.776;2023-02-15T03:19:40;5.30;99.90
38428;DHT22;24211;49.980;19.776;2023-02-15T03:22:19;5.00;99.90
38428;DHT22;24211;49.980;19.776;2023-02-15T03:25:05;4.90;99.90
38428;DHT22;24211;49.980;19.776;2023-02-15T03:27:42;5.30;99.90
38428;DHT22;24211;49.980;19.776;2023-02-15T03:30:15;5.40;99.90
38428;DHT22;24211;49.980;19.776;2023-02-15T03:32:50;5.60;99.90
38428;DHT22;24211;49.980;19.776;2023-02-15T03:35:22;5.70;99.90
38428;DHT22;24211;49.980;19.776;2023-02-15T03:38:00;5.70;99.90
38428;DHT22;24211;49.980;19.776;2023-02-15T03:40:37;5.60;99.90
38428;DHT22;24211;49.980;19.776;2023-02-15T03:43:49;5.70;99.90
38428;DHT22;24211;49.980;19.776;2023-02-15T03:46:34;5.80;99.90
38428;DHT22;24211;49.980;19.776;2023-02-15T03:49:14;5.70;99.90
38428;DHT22;24211;49.980;19.776;2023-02-15T03:51:54;5.80;99.90
38428;DHT22;24211;49.980;19.776;2023-02-15T03:54:30;5.60;99.90
38428;DHT22;24211;49.980;19.776;2023-02-15T03:57:20;5.70;99.90
38428;DHT22;24211;49.980;19.776;2023-02-15T04:00:18;5.70;99.90
38428;DHT22;24211;49.980;19.776;2023-02-15T04:05:44;5.70;99.90
38428;DHT22;24211;49.980;19.776;2023-02-15T04:08:12;5.80;99.90
38428;DHT22;24211;49.980;19.776;2023-02-15T04:10:40;5.70;99.90
38428;DHT22;24211;49.980;19.776;2023-02-15T04:13:24;5.70;99.90
38428;DHT22;24211;49.980;19.776;2023-02-15T04:15:57;5.80;99.90
38428;DHT22;24211;49.980;19.776;2023-02-15T04:18:36;5.70;99.90
38428;DHT22;24211;49.980;19.776;2023-02-15T04:21:25;5.10;99.90
38428;DHT22;24211;49.980;19.776;2023-02-15T04:24:13;5.20;99.90
38428;DHT22;24211;49.980;19.776;2023-02-15T04:27:00;5.10;99.90
38428;DHT22;24211;49.980;19.776;2023-02-15T04:29:29;5.20;99.90
38428;DHT22;24211;49.980;19.776;2023-02-15T04:31:59;5.30;99.90
38428;DHT22;24211;49.980;19.776;2023-02-15T04:34:27;5.30;99.90
38428;DHT22;24211;49.980;19.776;2023-02-15T04:36:54;5.30;99.90
38428;DHT22;24211;49.980;19.776;2023-02-15T04:39:21;5.40;99.90
38428;DHT22;24211;49.980;19.776;2023-02-15T04:41:49;5.50;99.90
38428;DHT22;24211;49.980;19.776;2023-02-15T04:44:16;5.60;99.90
38428;DHT22;24211;49.980;19.776;2023-02-15T04:46:43;5.70;99.90
38428;DHT22;24211;49.980;19.776;2023-02-15T04:49:11;5.80;99.90
38428;DHT22;24211;49.980;19.776;2023-02-15T04:51:39;5.80;99.90
38428;DHT22;24211;49.980;19.776;2023-02-15T04:54:06;5.70;99.90
38428;DHT22;24211;49.980;19.776;2023-02-15T04:56:33;5.30;99.90
38428;DHT22;24211;49.980;19.776;2023-02-15T04:59:01;5.30;99.90
38428;DHT22;24211;49.980;19.776;2023-02-15T05:01:29;5.30;99.90
38428;DHT22;24211;49.980;19.776;2023-02-15T05:03:56;5.50;99.90
38428;DHT22;24211;49.980;19.776;2023-02-15T05:06:23;5.60;99.90
38428;DHT22;24211;49.980;19.776;2023-02-15T05:08:50;5.60;99.90
38428;DHT22;24211;49.980;19.776;2023-02-15T05:11:18;5.40;99.90
38428;DHT22;24211;49.980;19.776;2023-02-15T05:13:45;5.30;99.90
38428;DHT22;24211;49.980;19.776;2023-02-15T05:16:12;5.40;99.90
38428;DHT22;24211;49.980;19.776;2023-02-15T05:18:39;5.50;99.90
38428;DHT22;24211;49.980;19.776;2023-02-15T05:21:07;5.60;99.90
38428;DHT22;24211;49.980;19.776;2023-02-15T05:23:34;5.60;99.90
38428;DHT22;24211;49.980;19.776;2023-02-15T05:26:01;5.70;99.90
38428;DHT22;24211;49.980;19.776;2023-02-15T05:28:49;5.70;99.90
38428;DHT22;24211;49.980;19.776;2023-02-15T05:31:17;5.70;99.90
38428;DHT22;24211;49.980;19.776;2023-02-15T05:33:46;5.70;99.90
38428;DHT22;24211;49.980;19.776;2023-02-15T05:36:13;5.80;99.90
38428;DHT22;24211;49.980;19.776;2023-02-15T05:38:40;5.70;99.90
38428;DHT22;24211;49.980;19.776;2023-02-15T05:41:09;5.70;99.90
38428;DHT22;24211;49.980;19.776;2023-02-15T05:43:37;5.70;99.90
38428;DHT22;24211;49.980;19.776;2023-02-15T05:46:05;5.70;99.90
38428;DHT22;24211;49.980;19.776;2023-02-15T05:48:34;5.70;99.90
38428;DHT22;24211;49.980;19.776;2023-02-15T05:51:06;5.10;99.90
38428;DHT22;24211;49.980;19.776;2023-02-15T05:53:37;5.10;99.90
38428;DHT22;24211;49.980;19.776;2023-02-15T05:56:08;5.10;99.90
38428;DHT22;24211;49.980;19.776;2023-02-15T05:58:38;5.10;99.90
38428;DHT22;24211;49.980;19.776;2023-02-15T06:01:18;5.20;99.90
38428;DHT22;24211;49.980;19.776;2023-02-15T06:03:45;5.30;99.90
38428;DHT22;24211;49.980;19.776;2023-02-15T06:06:13;5.10;99.90
38428;DHT22;24211;49.980;19.776;2023-02-15T06:08:41;5.10;99.90
38428;DHT22;24211;49.980;19.776;2023-02-15T06:11:08;5.30;99.90
38428;DHT22;24211;49.980;19.776;2023-02-15T06:13:35;5.20;99.90
38428;DHT22;24211;49.980;19.776;2023-02-15T06:16:06;4.90;99.90
38428;DHT22;24211;49.980;19.776;2023-02-15T06:18:33;5.10;99.90
38428;DHT22;24211;49.980;19.776;2023-02-15T06:21:01;5.30;99.90
38428;DHT22;24211;49.980;19.776;2023-02-15T06:23:28;5.40;99.90
38428;DHT22;24211;49.980;19.776;2023-02-15T06:25:55;5.40;99.90
38428;DHT22;24211;49.980;19.776;2023-02-15T06:28:22;5.50;99.90
38428;DHT22;24211;49.980;19.776;2023-02-15T06:30:53;5.20;99.90
38428;DHT22;24211;49.980;19.776;2023-02-15T06:33:23;5.20;99.90
38428;DHT22;24211;49.980;19.776;2023-02-15T06:35:52;4.90;99.90
38428;DHT22;24211;49.980;19.776;2023-02-15T06:38:19;5.10;99.90
38428;DHT22;24211;49.980;19.776;2023-02-15T06:40:48;5.10;99.90
38428;DHT22;24211;49.980;19.776;2023-02-15T06:43:15;5.00;99.90
38428;DHT22;24211;49.980;19.776;2023-02-15T06:45:42;5.20;99.90
38428;DHT22;24211;49.980;19.776;2023-02-15T06:48:09;5.10;99.90
38428;DHT22;24211;49.980;19.776;2023-02-15T06:50:38;5.20;99.90
38428;DHT22;24211;49.980;19.776;2023-02-15T06:53:05;5.00;99.90
38428;DHT22;24211;49.980;19.776;2023-02-15T06:55:32;4.80;99.90
38428;DHT22;24211;49.980;19.776;2023-02-15T06:57:59;4.90;99.90
38428;DHT22;24211;49.980;19.776;2023-02-15T07:00:26;5.20;99.90
38428;DHT22;24211;49.980;19.776;2023-02-15T07:02:57;5.20;99.90
38428;DHT22;24211;49.980;19.776;2023-02-15T07:05:26;5.00;99.90
38428;DHT22;24211;49.980;19.776;2023-02-15T07:07:58;5.30;99.90
38428;DHT22;24211;49.980;19.776;2023-02-15T07:10:27;5.50;99.90
38428;DHT22;24211;49.980;19.776;2023-02-15T07:12:54;5.60;99.90
38428;DHT22;24211;49.980;19.776;2023-02-15T07:15:22;5.70;99.90
38428;DHT22;24211;49.980;19.776;2023-02-15T07:17:50;5.80;99.90
38428;DHT22;24211;49.980;19.776;2023-02-15T07:20:22;6.00;99.90
38428;DHT22;24211;49.980;19.776;2023-02-15T07:22:50;6.10;99.90
38428;DHT22;24211;49.980;19.776;2023-02-15T07:25:18;6.10;99.90
38428;DHT22;24211;49.980;19.776;2023-02-15T07:27:45;6.10;99.90
38428;DHT22;24211;49.980;19.776;2023-02-15T07:30:15;6.10;99.90
38428;DHT22;24211;49.980;19.776;2023-02-15T07:32:43;6.20;99.90
38428;DHT22;24211;49.980;19.776;2023-02-15T07:35:32;6.30;99.90
38428;DHT22;24211;49.980;19.776;2023-02-15T07:38:00;6.50;99.90
38428;DHT22;24211;49.980;19.776;2023-02-15T07:40:28;6.70;99.90
38428;DHT22;24211;49.980;19.776;2023-02-15T07:42:57;6.90;99.90
38428;DHT22;24211;49.980;19.776;2023-02-15T07:45:26;7.00;99.90
38428;DHT22;24211;49.980;19.776;2023-02-15T07:47:53;7.00;99.90
38428;DHT22;24211;49.980;19.776;2023-02-15T07:50:20;6.90;99.90
38428;DHT22;24211;49.980;19.776;2023-02-15T07:52:48;7.10;99.90
38428;DHT22;24211;49.980;19.776;2023-02-15T07:55:15;7.20;99.90
38428;DHT22;24211;49.980;19.776;2023-02-15T07:57:44;7.40;99.90
38428;DHT22;24211;49.980;19.776;2023-02-15T08:00:19;7.30;99.90
38428;DHT22;24211;49.980;19.776;2023-02-15T08:02:53;7.30;99.90
38428;DHT22;24211;49.980;19.776;2023-02-15T08:05:43;7.40;99.90
38428;DHT22;24211;49.980;19.776;2023-02-15T08:08:12;7.60;99.90
38428;DHT22;24211;49.980;19.776;2023-02-15T08:11:00;7.80;99.90
38428;DHT22;24211;49.980;19.776;2023-02-15T08:13:57;8.20;99.90
38428;DHT22;24211;49.980;19.776;2023-02-15T08:16:48;8.40;99.90
38428;DHT22;24211;49.980;19.776;2023-02-15T08:19:28;8.40;99.90
38428;DHT22;24211;49.980;19.776;2023-02-15T08:21:58;8.50;99.90
38428;DHT22;24211;49.980;19.776;2023-02-15T08:24:30;8.40;99.90
38428;DHT22;24211;49.980;19.776;2023-02-15T08:27:00;8.60;99.90
38428;DHT22;24211;49.980;19.776;2023-02-15T08:29:33;8.70;99.90
38428;DHT22;24211;49.980;19.776;2023-02-15T08:32:06;8.80;99.90
38428;DHT22;24211;49.980;19.776;2023-02-15T08:34:40;8.90;99.90
38428;DHT22;24211;49.980;19.776;2023-02-15T08:37:09;9.00;99.90
38428;DHT22;24211;49.980;19.776;2023-02-15T08:39:36;9.10;99.90
38428;DHT22;24211;49.980;19.776;2023-02-15T08:42:03;9.20;99.90
38428;DHT22;24211;49.980;19.776;2023-02-15T08:44:31;9.30;99.90
38428;DHT22;24211;49.980;19.776;2023-02-15T08:46:58;9.30;99.90
38428;DHT22;24211;49.980;19.776;2023-02-15T08:49:30;9.30;99.90
38428;DHT22;24211;49.980;19.776;2023-02-15T08:51:58;9.30;99.90
38428;DHT22;24211;49.980;19.776;2023-02-15T08:54:26;9.30;99.90
38428;DHT22;24211;49.980;19.776;2023-02-15T08:56:54;9.50;99.90
38428;DHT22;24211;49.980;19.776;2023-02-15T08:59:23;9.50;99.90
38428;DHT22;24211;49.980;19.776;2023-02-15T09:01:51;9.70;99.90
38428;DHT22;24211;49.980;19.776;2023-02-15T09:04:20;9.60;99.90
38428;DHT22;24211;49.980;19.776;2023-02-15T09:06:49;9.80;99.90
38428;DHT22;24211;49.980;19.776;2023-02-15T09:09:18;9.80;99.90
38428;DHT22;24211;49.980;19.776;2023-02-15T09:11:50;10.00;99.90
38428;DHT22;24211;49.980;19.776;2023-02-15T09:14:24;10.00;99.90
38428;DHT22;24211;49.980;19.776;2023-02-15T09:16:53;10.00;99.90
38428;DHT22;24211;49.980;19.776;2023-02-15T09:19:22;10.20;99.90
38428;DHT22;24211;49.980;19.776;2023-02-15T09:21:50;10.20;99.90
38428;DHT22;24211;49.980;19.776;2023-02-15T09:24:18;10.20;99.90
38428;DHT22;24211;49.980;19.776;2023-02-15T09:26:47;10.30;99.90
38428;DHT22;24211;49.980;19.776;2023-02-15T09:29:17;10.40;99.90
38428;DHT22;24211;49.980;19.776;2023-02-15T09:31:47;10.50;99.90
38428;DHT22;24211;49.980;19.776;2023-02-15T09:34:19;10.60;99.90
38428;DHT22;24211;49.980;19.776;2023-02-15T09:36:48;10.60;99.90
38428;DHT22;24211;49.980;19.776;2023-02-15T09:39:20;10.70;99.90
38428;DHT22;24211;49.980;19.776;2023-02-15T09:42:04;10.80;99.90
38428;DHT22;24211;49.980;19.776;2023-02-15T09:51:02;11.10;99.90
38428;DHT22;24211;49.980;19.776;2023-02-15T09:54:08;11.20;99.90
38428;DHT22;24211;49.980;19.776;2023-02-15T09:57:03;11.30;99.90
38428;DHT22;24211;49.980;19.776;2023-02-15T09:59:59;11.50;99.90
38428;DHT22;24211;49.980;19.776;2023-02-15T10:11:21;11.90;99.90
38428;DHT22;24211;49.980;19.776;2023-02-15T10:14:25;11.90;99.90
38428;DHT22;24211;49.980;19.776;2023-02-15T10:17:38;12.00;99.90
38428;DHT22;24211;49.980;19.776;2023-02-15T10:20:18;11.90;99.90
38428;DHT22;24211;49.980;19.776;2023-02-15T10:29:36;11.90;99.90
38428;DHT22;24211;49.980;19.776;2023-02-15T10:31:51;11.90;99.90
38428;DHT22;24211;49.980;19.776;2023-02-15T10:34:38;12.30;99.90
38428;DHT22;24211;49.980;19.776;2023-02-15T10:37:38;12.40;99.90
38428;DHT22;24211;49.980;19.776;2023-02-15T10:40:31;12.20;99.90
38428;DHT22;24211;49.980;19.776;2023-02-15T10:49:23;12.70;99.90
38428;DHT22;24211;49.980;19.776;2023-02-15T10:55:27;12.90;99.90
38428;DHT22;24211;49.980;19.776;2023-02-15T11:01:11;12.80;99.90
38428;DHT22;24211;49.980;19.776;2023-02-15T11:06:36;13.20;99.90
38428;DHT22;24211;49.980;19.776;2023-02-15T11:09:13;13.10;99.90
38428;DHT22;24211;49.980;19.776;2023-02-15T11:11:51;13.20;99.90
38428;DHT22;24211;49.980;19.776;2023-02-15T11:17:21;13.30;99.90
38428;DHT22;24211;49.980;19.776;2023-02-15T11:20:08;13.50;99.90
38428;DHT22;24211;49.980;19.776;2023-02-15T11:22:52;13.50;99.90
38428;DHT22;24211;49.980;19.776;2023-02-15T11:25:32;13.50;99.90
38428;DHT22;24211;49.980;19.776;2023-02-15T11:28:04;13.50;99.90
38428;DHT22;24211;49.980;19.776;2023-02-15T11:30:50;13.40;99.90
38428;DHT22;24211;49.980;19.776;2023-02-15T11:33:27;13.40;99.90
38428;DHT22;24211;49.980;19.776;2023-02-15T11:36:08;13.50;99.90
38428;DHT22;24211;49.980;19.776;2023-02-15T11:38:41;13.20;99.90
38428;DHT22;24211;49.980;19.776;2023-02-15T11:41:13;13.40;99.90
38428;DHT22;24211;49.980;19.776;2023-02-15T11:44:06;13.50;99.90
38428;DHT22;24211;49.980;19.776;2023-02-15T11:46:36;13.60;99.90
38428;DHT22;24211;49.980;19.776;2023-02-15T11:49:23;13.60;99.90
38428;DHT22;24211;49.980;19.776;2023-02-15T11:51:56;13.50;99.90
38428;DHT22;24211;49.980;19.776;2023-02-15T11:54:28;13.20;99.90
38428;DHT22;24211;49.980;19.776;2023-02-15T11:57:20;13.20;99.90
38428;DHT22;24211;49.980;19.776;2023-02-15T12:02:40;13.20;99.90
38428;DHT22;24211;49.980;19.776;2023-02-15T12:05:17;13.40;99.90
38428;DHT22;24211;49.980;19.776;2023-02-15T12:08:00;12.90;99.90
38428;DHT22;24211;49.980;19.776;2023-02-15T12:11:06;13.20;99.90
38428;DHT22;24211;49.980;19.776;2023-02-15T12:14:03;13.30;99.90
38428;DHT22;24211;49.980;19.776;2023-02-15T12:19:28;13.50;99.90
38428;DHT22;24211;49.980;19.776;2023-02-15T12:22:05;13.30;99.90
38428;DHT22;24211;49.980;19.776;2023-02-15T12:24:45;13.50;99.90
38428;DHT22;24211;49.980;19.776;2023-02-15T12:27:23;13.80;99.90
38428;DHT22;24211;49.980;19.776;2023-02-15T12:30:13;13.90;99.90
38428;DHT22;24211;49.980;19.776;2023-02-15T12:33:04;14.00;99.90
38428;DHT22;24211;49.980;19.776;2023-02-15T12:35:41;13.70;99.90
38428;DHT22;24211;49.980;19.776;2023-02-15T12:40:38;13.80;99.90
38428;DHT22;24211;49.980;19.776;2023-02-15T12:43:38;14.00;99.90
38428;DHT22;24211;49.980;19.776;2023-02-15T12:49:19;13.90;99.90
38428;DHT22;24211;49.980;19.776;2023-02-15T12:51:52;13.80;99.90
38428;DHT22;24211;49.980;19.776;2023-02-15T12:59:59;14.00;99.90
38428;DHT22;24211;49.980;19.776;2023-02-15T13:02:48;14.10;99.90
38428;DHT22;24211;49.980;19.776;2023-02-15T13:08:17;14.10;99.90
38428;DHT22;24211;49.980;19.776;2023-02-15T13:13:37;14.00;99.90
38428;DHT22;24211;49.980;19.776;2023-02-15T13:16:30;14.30;99.90
38428;DHT22;24211;49.980;19.776;2023-02-15T13:19:06;14.60;99.90
38428;DHT22;24211;49.980;19.776;2023-02-15T13:21:41;14.40;99.90
38428;DHT22;24211;49.980;19.776;2023-02-15T13:24:22;14.50;99.90
38428;DHT22;24211;49.980;19.776;2023-02-15T13:26:54;14.50;99.90
38428;DHT22;24211;49.980;19.776;2023-02-15T13:29:43;14.60;99.90
38428;DHT22;24211;49.980;19.776;2023-02-15T13:34:56;14.50;99.90
38428;DHT22;24211;49.980;19.776;2023-02-15T13:57:54;13.80;99.90
38428;DHT22;24211;49.980;19.776;2023-02-15T14:03:47;13.90;99.90
38428;DHT22;24211;49.980;19.776;2023-02-15T14:09:17;13.50;99.90
38428;DHT22;24211;49.980;19.776;2023-02-15T14:15:13;13.50;99.90
38428;DHT22;24211;49.980;19.776;2023-02-15T14:18:12;13.30;99.90
38428;DHT22;24211;49.980;19.776;2023-02-15T14:21:10;13.30;99.90
38428;DHT22;24211;49.980;19.776;2023-02-15T14:26:40;13.80;99.90
38428;DHT22;24211;49.980;19.776;2023-02-15T14:29:38;13.90;99.90
38428;DHT22;24211;49.980;19.776;2023-02-15T14:32:27;14.00;99.90
38428;DHT22;24211;49.980;19.776;2023-02-15T14:35:05;13.90;99.90
38428;DHT22;24211;49.980;19.776;2023-02-15T14:38:02;13.80;99.90
38428;DHT22;24211;49.980;19.776;2023-02-15T14:41:09;13.80;99.90
38428;DHT22;24211;49.980;19.776;2023-02-15T14:46:45;13.80;99.90
38428;DHT22;24211;49.980;19.776;2023-02-15T14:49:26;13.70;99.90
38428;DHT22;24211;49.980;19.776;2023-02-15T14:52:03;13.60;99.90
38428;DHT22;24211;49.980;19.776;2023-02-15T14:59:46;13.20;99.90
38428;DHT22;24211;49.980;19.776;2023-02-15T15:02:44;13.20;99.90
38428;DHT22;24211;49.980;19.776;2023-02-15T15:05:33;13.10;99.90
38428;DHT22;24211;49.980;19.776;2023-02-15T15:08:03;13.10;99.90
38428;DHT22;24211;49.980;19.776;2023-02-15T15:10:35;13.10;99.90
38428;DHT22;24211;49.980;19.776;2023-02-15T15:16:28;13.00;99.90
38428;DHT22;24211;49.980;19.776;2023-02-15T15:19:09;13.00;99.90
38428;DHT22;24211;49.980;19.776;2023-02-15T15:49:55;12.10;99.90
38428;DHT22;24211;49.980;19.776;2023-02-15T15:52:26;12.10;99.90
38428;DHT22;24211;49.980;19.776;2023-02-15T15:55:05;12.00;99.90
38428;DHT22;24211;49.980;19.776;2023-02-15T15:57:45;12.00;99.90
38428;DHT22;24211;49.980;19.776;2023-02-15T16:00:43;11.90;99.90
38428;DHT22;24211;49.980;19.776;2023-02-15T16:03:21;11.80;99.90
38428;DHT22;24211;49.980;19.776;2023-02-15T16:05:50;11.80;99.90
38428;DHT22;24211;49.980;19.776;2023-02-15T16:08:38;11.70;99.90
38428;DHT22;24211;49.980;19.776;2023-02-15T16:11:21;11.60;99.90
38428;DHT22;24211;49.980;19.776;2023-02-15T16:13:50;11.50;99.90
38428;DHT22;24211;49.980;19.776;2023-02-15T16:16:28;11.50;99.90
38428;DHT22;24211;49.980;19.776;2023-02-15T16:18:56;11.40;99.90
38428;DHT22;24211;49.980;19.776;2023-02-15T16:21:34;11.30;99.90
38428;DHT22;24211;49.980;19.776;2023-02-15T16:29:50;11.10;99.90
38428;DHT22;24211;49.980;19.776;2023-02-15T16:32:22;11.00;99.90
38428;DHT22;24211;49.980;19.776;2023-02-15T16:34:58;11.00;99.90
38428;DHT22;24211;49.980;19.776;2023-02-15T16:37:31;11.00;99.90
38428;DHT22;24211;49.980;19.776;2023-02-15T16:40:01;10.90;99.90
38428;DHT22;24211;49.980;19.776;2023-02-15T16:42:28;10.90;99.90
38428;DHT22;24211;49.980;19.776;2023-02-15T16:45:07;10.80;99.90
38428;DHT22;24211;49.980;19.776;2023-02-15T16:47:43;10.80;99.90
38428;DHT22;24211;49.980;19.776;2023-02-15T16:50:19;10.80;99.90
38428;DHT22;24211;49.980;19.776;2023-02-15T16:52:51;10.70;99.90
38428;DHT22;24211;49.980;19.776;2023-02-15T16:55:24;10.60;99.90
38428;DHT22;24211;49.980;19.776;2023-02-15T16:57:59;10.60;99.90
38428;DHT22;24211;49.980;19.776;2023-02-15T17:00:32;10.50;99.90
38428;DHT22;24211;49.980;19.776;2023-02-15T17:03:22;10.50;99.90
38428;DHT22;24211;49.980;19.776;2023-02-15T17:06:01;10.40;99.90
38428;DHT22;24211;49.980;19.776;2023-02-15T17:08:36;10.30;99.90
38428;DHT22;24211;49.980;19.776;2023-02-15T17:11:18;10.20;99.90
38428;DHT22;24211;49.980;19.776;2023-02-15T17:16:44;10.10;99.90
38428;DHT22;24211;49.980;19.776;2023-02-15T17:19:21;10.00;99.90
38428;DHT22;24211;49.980;19.776;2023-02-15T17:22:02;10.00;99.90
38428;DHT22;24211;49.980;19.776;2023-02-15T17:24:40;9.90;99.90
38428;DHT22;24211;49.980;19.776;2023-02-15T17:29:58;9.80;99.90
38428;DHT22;24211;49.980;19.776;2023-02-15T17:32:30;9.80;99.90
38428;DHT22;24211;49.980;19.776;2023-02-15T17:35:20;9.70;99.90
38428;DHT22;24211;49.980;19.776;2023-02-15T17:38:17;9.60;99.90
38428;DHT22;24211;49.980;19.776;2023-02-15T17:40:47;9.50;99.90
38428;DHT22;24211;49.980;19.776;2023-02-15T17:43:14;9.50;99.90
38428;DHT22;24211;49.980;19.776;2023-02-15T17:45:50;9.40;99.90
38428;DHT22;24211;49.980;19.776;2023-02-15T17:51:03;9.30;99.90
38428;DHT22;24211;49.980;19.776;2023-02-15T17:53:32;9.20;99.90
38428;DHT22;24211;49.980;19.776;2023-02-15T17:55:59;9.20;99.90
38428;DHT22;24211;49.980;19.776;2023-02-15T17:58:39;9.20;99.90
38428;DHT22;24211;49.980;19.776;2023-02-15T18:01:12;9.10;99.90
38428;DHT22;24211;49.980;19.776;2023-02-15T18:04:04;9.00;99.90
38428;DHT22;24211;49.980;19.776;2023-02-15T18:06:53;9.00;99.90
38428;DHT22;24211;49.980;19.776;2023-02-15T18:09:39;8.90;99.90
38428;DHT22;24211;49.980;19.776;2023-02-15T18:12:31;8.80;99.90
38428;DHT22;24211;49.980;19.776;2023-02-15T18:14:59;8.80;99.90
38428;DHT22;24211;49.980;19.776;2023-02-15T18:17:34;8.80;99.90
38428;DHT22;24211;49.980;19.776;2023-02-15T18:20:25;8.70;99.90
38428;DHT22;24211;49.980;19.776;2023-02-15T18:22:58;8.60;99.90
38428;DHT22;24211;49.980;19.776;2023-02-15T18:25:25;8.60;99.90
38428;DHT22;24211;49.980;19.776;2023-02-15T18:27:52;8.50;99.90
38428;DHT22;24211;49.980;19.776;2023-02-15T18:30:22;8.40;99.90
38428;DHT22;24211;49.980;19.776;2023-02-15T18:32:54;8.40;99.90
38428;DHT22;24211;49.980;19.776;2023-02-15T18:35:25;8.40;99.90
38428;DHT22;24211;49.980;19.776;2023-02-15T18:37:58;8.30;99.90
38428;DHT22;24211;49.980;19.776;2023-02-15T18:40:28;8.30;99.90
38428;DHT22;24211;49.980;19.776;2023-02-15T18:42:56;8.20;99.90
38428;DHT22;24211;49.980;19.776;2023-02-15T18:45:28;8.20;99.90
38428;DHT22;24211;49.980;19.776;2023-02-15T18:47:59;8.10;99.90
38428;DHT22;24211;49.980;19.776;2023-02-15T18:50:31;8.00;99.90
38428;DHT22;24211;49.980;19.776;2023-02-15T18:53:02;8.00;99.90
38428;DHT22;24211;49.980;19.776;2023-02-15T18:55:32;7.90;99.90
38428;DHT22;24211;49.980;19.776;2023-02-15T18:58:01;7.90;99.90
38428;DHT22;24211;49.980;19.776;2023-02-15T19:00:31;7.80;99.90
38428;DHT22;24211;49.980;19.776;2023-02-15T19:03:01;7.80;99.90
38428;DHT22;24211;49.980;19.776;2023-02-15T19:05:29;7.70;99.90